sensor_id;sensor_type;location;lat;lon;timestamp;P1;durP1;ratioP1;P2;durP2;ratioP2
21138;SDS011;10727;43.600;1.444;2023-02-07T00:02:41;21.00;;;15.05;;
21138;SDS011;10727;43.600;1.444;2023-02-07T00:05:46;26.23;;;15.85;;
21138;SDS011;10727;43.600;1.444;2023-02-07T00:08:52;27.25;;;16.40;;
21138;SDS011;10727;43.600;1.444;2023-02-07T00:11:59;25.38;;;15.27;;
21138;SDS011;10727;43.600;1.444;2023-02-07T00:15:04;21.20;;;15.27;;
21138;SDS011;10727;43.600;1.444;2023-02-07T00:18:08;22.08;;;15.20;;
21138;SDS011;10727;43.600;1.444;2023-02-07T00:21:14;23.48;;;16.20;;
21138;SDS011;10727;43.600;1.444;2023-02-07T00:24:19;24.70;;;15.73;;
21138;SDS011;10727;43.600;1.444;2023-02-07T00:27:26;25.08;;;15.90;;
21138;SDS011;10727;43.600;1.444;2023-02-07T00:30:31;25.88;;;16.17;;
21138;SDS011;10727;43.600;1.444;2023-02-07T00:33:36;22.73;;;15.70;;
21138;SDS011;10727;43.600;1.444;2023-02-07T00:36:41;24.23;;;16.00;;
21138;SDS011;10727;43.600;1.444;2023-02-07T00:39:46;23.10;;;16.58;;
21138;SDS011;10727;43.600;1.444;2023-02-07T00:42:53;26.10;;;16.25;;
21138;SDS011;10727;43.600;1.444;2023-02-07T00:45:58;24.70;;;16.45;;
21138;SDS011;10727;43.600;1.444;2023-02-07T00:49:03;23.38;;;16.15;;
21138;SDS011;10727;43.600;1.444;2023-02-07T00:52:09;23.27;;;16.17;;
21138;SDS011;10727;43.600;1.444;2023-02-07T00:55:14;21.30;;;15.52;;
21138;SDS011;10727;43.600;1.444;2023-02-07T00:58:20;24.30;;;16.10;;
21138;SDS011;10727;43.600;1.444;2023-02-07T01:01:26;22.25;;;15.13;;
21138;SDS011;10727;43.600;1.444;2023-02-07T01:04:32;22.40;;;14.93;;
21138;SDS011;10727;43.600;1.444;2023-02-07T01:07:37;20.98;;;15.18;;
21138;SDS011;10727;43.600;1.444;2023-02-07T01:10:43;23.55;;;15.38;;
21138;SDS011;10727;43.600;1.444;2023-02-07T01:13:50;19.35;;;14.60;;
21138;SDS011;10727;43.600;1.444;2023-02-07T01:16:57;22.45;;;15.43;;
21138;SDS011;10727;43.600;1.444;2023-02-07T01:20:04;21.25;;;15.32;;
21138;SDS011;10727;43.600;1.444;2023-02-07T01:23:09;23.27;;;15.55;;
21138;SDS011;10727;43.600;1.444;2023-02-07T01:26:15;20.02;;;15.07;;
21138;SDS011;10727;43.600;1.444;2023-02-07T01:29:21;22.67;;;15.25;;
21138;SDS011;10727;43.600;1.444;2023-02-07T01:32:26;21.33;;;15.25;;
21138;SDS011;10727;43.600;1.444;2023-02-07T01:35:31;22.02;;;14.70;;
21138;SDS011;10727;43.600;1.444;2023-02-07T01:38:36;21.08;;;15.13;;
21138;SDS011;10727;43.600;1.444;2023-02-07T01:41:42;20.30;;;14.77;;
21138;SDS011;10727;43.600;1.444;2023-02-07T01:45:03;23.88;;;15.60;;
21138;SDS011;10727;43.600;1.444;2023-02-07T01:48:10;23.25;;;15.45;;
21138;SDS011;10727;43.600;1.444;2023-02-07T01:51:16;24.35;;;15.52;;
21138;SDS011;10727;43.600;1.444;2023-02-07T01:54:21;22.95;;;16.05;;
21138;SDS011;10727;43.600;1.444;2023-02-07T01:57:27;23.13;;;15.80;;
21138;SDS011;10727;43.600;1.444;2023-02-07T02:00:33;28.75;;;16.90;;
21138;SDS011;10727;43.600;1.444;2023-02-07T02:03:39;23.98;;;16.65;;
21138;SDS011;10727;43.600;1.444;2023-02-07T02:06:46;24.92;;;17.33;;
21138;SDS011;10727;43.600;1.444;2023-02-07T02:09:51;24.90;;;16.95;;
21138;SDS011;10727;43.600;1.444;2023-02-07T02:13:09;26.83;;;17.10;;
21138;SDS011;10727;43.600;1.444;2023-02-07T02:16:23;22.10;;;16.40;;
21138;SDS011;10727;43.600;1.444;2023-02-07T02:23:11;24.88;;;16.05;;
21138;SDS011;10727;43.600;1.444;2023-02-07T02:29:52;20.55;;;14.35;;
21138;SDS011;10727;43.600;1.444;2023-02-07T02:33:10;18.92;;;13.90;;
21138;SDS011;10727;43.600;1.444;2023-02-07T02:36:20;23.52;;;14.88;;
21138;SDS011;10727;43.600;1.444;2023-02-07T02:39:29;20.30;;;14.07;;
21138;SDS011;10727;43.600;1.444;2023-02-07T02:42:36;19.80;;;13.82;;
21138;SDS011;10727;43.600;1.444;2023-02-07T02:45:45;21.58;;;13.45;;
21138;SDS011;10727;43.600;1.444;2023-02-07T02:48:53;22.20;;;12.98;;
21138;SDS011;10727;43.600;1.444;2023-02-07T02:51:58;20.90;;;12.80;;
21138;SDS011;10727;43.600;1.444;2023-02-07T02:55:04;18.65;;;12.07;;
21138;SDS011;10727;43.600;1.444;2023-02-07T02:58:12;20.77;;;11.98;;
21138;SDS011;10727;43.600;1.444;2023-02-07T03:01:22;17.05;;;11.63;;
21138;SDS011;10727;43.600;1.444;2023-02-07T03:04:37;18.58;;;11.52;;
21138;SDS011;10727;43.600;1.444;2023-02-07T03:07:47;15.45;;;10.60;;
21138;SDS011;10727;43.600;1.444;2023-02-07T03:10:57;17.35;;;10.40;;
21138;SDS011;10727;43.600;1.444;2023-02-07T03:14:06;15.18;;;10.18;;
21138;SDS011;10727;43.600;1.444;2023-02-07T03:17:15;17.02;;;10.10;;
21138;SDS011;10727;43.600;1.444;2023-02-07T03:20:25;16.15;;;9.85;;
21138;SDS011;10727;43.600;1.444;2023-02-07T03:23:32;14.10;;;9.30;;
21138;SDS011;10727;43.600;1.444;2023-02-07T03:26:38;14.45;;;9.88;;
21138;SDS011;10727;43.600;1.444;2023-02-07T03:29:45;15.95;;;9.43;;
21138;SDS011;10727;43.600;1.444;2023-02-07T03:32:51;12.77;;;9.48;;
21138;SDS011;10727;43.600;1.444;2023-02-07T03:36:02;16.27;;;9.10;;
21138;SDS011;10727;43.600;1.444;2023-02-07T03:39:10;15.38;;;9.32;;
21138;SDS011;10727;43.600;1.444;2023-02-07T03:42:15;13.73;;;8.55;;
21138;SDS011;10727;43.600;1.444;2023-02-07T03:45:23;14.70;;;9.07;;
21138;SDS011;10727;43.600;1.444;2023-02-07T03:48:28;10.80;;;8.15;;
21138;SDS011;10727;43.600;1.444;2023-02-07T03:51:35;13.88;;;9.02;;
21138;SDS011;10727;43.600;1.444;2023-02-07T03:54:40;14.40;;;8.70;;
21138;SDS011;10727;43.600;1.444;2023-02-07T03:57:44;12.45;;;9.13;;
21138;SDS011;10727;43.600;1.444;2023-02-07T04:00:50;13.52;;;9.00;;
21138;SDS011;10727;43.600;1.444;2023-02-07T04:03:55;12.25;;;9.48;;
21138;SDS011;10727;43.600;1.444;2023-02-07T04:07:01;13.98;;;9.50;;
21138;SDS011;10727;43.600;1.444;2023-02-07T04:10:07;14.88;;;8.75;;
21138;SDS011;10727;43.600;1.444;2023-02-07T04:13:12;11.55;;;8.88;;
21138;SDS011;10727;43.600;1.444;2023-02-07T04:16:17;15.45;;;9.75;;
21138;SDS011;10727;43.600;1.444;2023-02-07T04:19:22;14.95;;;8.90;;
21138;SDS011;10727;43.600;1.444;2023-02-07T04:22:28;12.75;;;9.82;;
21138;SDS011;10727;43.600;1.444;2023-02-07T04:25:33;14.10;;;10.13;;
21138;SDS011;10727;43.600;1.444;2023-02-07T04:28:38;17.88;;;11.10;;
21138;SDS011;10727;43.600;1.444;2023-02-07T04:31:44;16.35;;;10.45;;
21138;SDS011;10727;43.600;1.444;2023-02-07T04:34:48;15.80;;;11.35;;
21138;SDS011;10727;43.600;1.444;2023-02-07T04:37:55;16.60;;;12.07;;
21138;SDS011;10727;43.600;1.444;2023-02-07T04:41:00;15.98;;;11.05;;
21138;SDS011;10727;43.600;1.444;2023-02-07T04:44:06;15.73;;;10.20;;
21138;SDS011;10727;43.600;1.444;2023-02-07T04:47:11;14.73;;;9.73;;
21138;SDS011;10727;43.600;1.444;2023-02-07T04:50:17;16.65;;;10.80;;
21138;SDS011;10727;43.600;1.444;2023-02-07T04:53:24;16.00;;;11.05;;
21138;SDS011;10727;43.600;1.444;2023-02-07T04:56:29;21.10;;;13.63;;
21138;SDS011;10727;43.600;1.444;2023-02-07T04:59:34;20.05;;;14.10;;
21138;SDS011;10727;43.600;1.444;2023-02-07T05:02:40;21.42;;;14.48;;
21138;SDS011;10727;43.600;1.444;2023-02-07T05:05:45;21.25;;;14.60;;
21138;SDS011;10727;43.600;1.444;2023-02-07T05:08:52;19.50;;;14.27;;
21138;SDS011;10727;43.600;1.444;2023-02-07T05:11:57;20.80;;;12.40;;
21138;SDS011;10727;43.600;1.444;2023-02-07T05:15:02;19.50;;;12.75;;
21138;SDS011;10727;43.600;1.444;2023-02-07T05:18:07;23.05;;;13.05;;
21138;SDS011;10727;43.600;1.444;2023-02-07T05:21:12;18.48;;;12.10;;
21138;SDS011;10727;43.600;1.444;2023-02-07T05:24:18;17.35;;;12.07;;
21138;SDS011;10727;43.600;1.444;2023-02-07T05:27:24;18.65;;;12.23;;
21138;SDS011;10727;43.600;1.444;2023-02-07T05:30:29;18.17;;;11.95;;
21138;SDS011;10727;43.600;1.444;2023-02-07T05:33:34;19.67;;;12.60;;
21138;SDS011;10727;43.600;1.444;2023-02-07T05:36:39;18.15;;;12.43;;
21138;SDS011;10727;43.600;1.444;2023-02-07T05:39:45;17.20;;;12.15;;
21138;SDS011;10727;43.600;1.444;2023-02-07T05:42:53;18.52;;;12.02;;
21138;SDS011;10727;43.600;1.444;2023-02-07T05:45:58;15.98;;;11.27;;
21138;SDS011;10727;43.600;1.444;2023-02-07T05:49:03;15.57;;;10.48;;
21138;SDS011;10727;43.600;1.444;2023-02-07T05:52:08;16.63;;;10.75;;
21138;SDS011;10727;43.600;1.444;2023-02-07T05:55:14;15.05;;;10.35;;
21138;SDS011;10727;43.600;1.444;2023-02-07T05:58:19;13.02;;;10.32;;
21138;SDS011;10727;43.600;1.444;2023-02-07T06:01:24;14.60;;;9.80;;
21138;SDS011;10727;43.600;1.444;2023-02-07T06:04:29;14.55;;;11.07;;
21138;SDS011;10727;43.600;1.444;2023-02-07T06:07:35;17.95;;;11.75;;
21138;SDS011;10727;43.600;1.444;2023-02-07T06:10:41;18.05;;;11.50;;
21138;SDS011;10727;43.600;1.444;2023-02-07T06:13:46;14.68;;;10.93;;
21138;SDS011;10727;43.600;1.444;2023-02-07T06:16:51;15.13;;;10.60;;
21138;SDS011;10727;43.600;1.444;2023-02-07T06:19:56;17.33;;;9.82;;
21138;SDS011;10727;43.600;1.444;2023-02-07T06:23:01;13.70;;;9.43;;
21138;SDS011;10727;43.600;1.444;2023-02-07T06:26:08;14.57;;;7.90;;
21138;SDS011;10727;43.600;1.444;2023-02-07T06:29:13;14.65;;;9.23;;
21138;SDS011;10727;43.600;1.444;2023-02-07T06:32:18;11.90;;;7.80;;
21138;SDS011;10727;43.600;1.444;2023-02-07T06:35:23;11.90;;;8.00;;
21138;SDS011;10727;43.600;1.444;2023-02-07T06:38:28;12.43;;;7.50;;
21138;SDS011;10727;43.600;1.444;2023-02-07T06:41:34;11.60;;;7.47;;
21138;SDS011;10727;43.600;1.444;2023-02-07T06:44:39;9.50;;;6.70;;
21138;SDS011;10727;43.600;1.444;2023-02-07T06:47:44;11.98;;;6.85;;
21138;SDS011;10727;43.600;1.444;2023-02-07T06:50:49;19.63;;;6.63;;
21138;SDS011;10727;43.600;1.444;2023-02-07T06:53:54;12.43;;;6.57;;
21138;SDS011;10727;43.600;1.444;2023-02-07T06:57:01;12.02;;;8.70;;
21138;SDS011;10727;43.600;1.444;2023-02-07T07:00:07;9.38;;;6.82;;
21138;SDS011;10727;43.600;1.444;2023-02-07T07:03:13;10.88;;;7.30;;
21138;SDS011;10727;43.600;1.444;2023-02-07T07:06:19;9.32;;;6.50;;
21138;SDS011;10727;43.600;1.444;2023-02-07T07:09:24;8.63;;;6.10;;
21138;SDS011;10727;43.600;1.444;2023-02-07T07:12:30;8.93;;;5.53;;
21138;SDS011;10727;43.600;1.444;2023-02-07T07:15:35;8.60;;;5.50;;
21138;SDS011;10727;43.600;1.444;2023-02-07T07:18:40;7.32;;;5.40;;
21138;SDS011;10727;43.600;1.444;2023-02-07T07:21:45;8.20;;;5.35;;
21138;SDS011;10727;43.600;1.444;2023-02-07T07:24:50;8.90;;;5.20;;
21138;SDS011;10727;43.600;1.444;2023-02-07T07:27:57;8.35;;;5.07;;
21138;SDS011;10727;43.600;1.444;2023-02-07T07:31:03;5.88;;;4.40;;
21138;SDS011;10727;43.600;1.444;2023-02-07T07:34:08;9.40;;;5.45;;
21138;SDS011;10727;43.600;1.444;2023-02-07T07:37:13;8.88;;;5.38;;
21138;SDS011;10727;43.600;1.444;2023-02-07T07:40:18;7.68;;;5.40;;
21138;SDS011;10727;43.600;1.444;2023-02-07T07:43:25;6.72;;;5.05;;
21138;SDS011;10727;43.600;1.444;2023-02-07T07:46:30;9.57;;;5.00;;
21138;SDS011;10727;43.600;1.444;2023-02-07T07:49:35;7.97;;;4.68;;
21138;SDS011;10727;43.600;1.444;2023-02-07T07:52:40;11.35;;;4.95;;
21138;SDS011;10727;43.600;1.444;2023-02-07T07:55:47;8.43;;;4.80;;
21138;SDS011;10727;43.600;1.444;2023-02-07T07:58:54;10.98;;;4.43;;
21138;SDS011;10727;43.600;1.444;2023-02-07T08:01:59;7.47;;;4.90;;
21138;SDS011;10727;43.600;1.444;2023-02-07T08:05:04;6.85;;;5.05;;
21138;SDS011;10727;43.600;1.444;2023-02-07T08:08:09;7.60;;;5.18;;
21138;SDS011;10727;43.600;1.444;2023-02-07T08:11:15;13.35;;;5.43;;
21138;SDS011;10727;43.600;1.444;2023-02-07T08:14:22;7.47;;;5.20;;
21138;SDS011;10727;43.600;1.444;2023-02-07T08:17:27;7.28;;;5.25;;
21138;SDS011;10727;43.600;1.444;2023-02-07T08:20:32;8.35;;;5.32;;
21138;SDS011;10727;43.600;1.444;2023-02-07T08:23:37;8.48;;;5.40;;
21138;SDS011;10727;43.600;1.444;2023-02-07T08:26:42;6.50;;;5.03;;
21138;SDS011;10727;43.600;1.444;2023-02-07T08:29:49;8.40;;;5.40;;
21138;SDS011;10727;43.600;1.444;2023-02-07T08:32:54;11.00;;;5.57;;
21138;SDS011;10727;43.600;1.444;2023-02-07T08:35:59;8.00;;;5.28;;
21138;SDS011;10727;43.600;1.444;2023-02-07T08:39:07;10.35;;;5.20;;
21138;SDS011;10727;43.600;1.444;2023-02-07T08:42:12;10.27;;;5.03;;
21138;SDS011;10727;43.600;1.444;2023-02-07T08:45:19;8.63;;;5.68;;
21138;SDS011;10727;43.600;1.444;2023-02-07T08:48:24;7.70;;;4.88;;
21138;SDS011;10727;43.600;1.444;2023-02-07T08:51:29;8.90;;;5.65;;
21138;SDS011;10727;43.600;1.444;2023-02-07T08:54:34;9.13;;;5.80;;
21138;SDS011;10727;43.600;1.444;2023-02-07T08:57:39;8.75;;;5.43;;
21138;SDS011;10727;43.600;1.444;2023-02-07T09:00:46;7.53;;;5.40;;
21138;SDS011;10727;43.600;1.444;2023-02-07T09:03:53;7.80;;;5.72;;
21138;SDS011;10727;43.600;1.444;2023-02-07T09:06:58;10.82;;;5.57;;
21138;SDS011;10727;43.600;1.444;2023-02-07T09:10:04;12.68;;;5.47;;
21138;SDS011;10727;43.600;1.444;2023-02-07T09:13:10;9.75;;;6.10;;
21138;SDS011;10727;43.600;1.444;2023-02-07T09:16:17;9.82;;;5.25;;
21138;SDS011;10727;43.600;1.444;2023-02-07T09:19:22;7.80;;;5.75;;
21138;SDS011;10727;43.600;1.444;2023-02-07T09:22:27;8.07;;;5.72;;
21138;SDS011;10727;43.600;1.444;2023-02-07T09:25:33;8.00;;;5.85;;
21138;SDS011;10727;43.600;1.444;2023-02-07T09:28:40;8.27;;;5.93;;
21138;SDS011;10727;43.600;1.444;2023-02-07T09:31:47;9.70;;;5.57;;
21138;SDS011;10727;43.600;1.444;2023-02-07T09:34:52;11.52;;;5.28;;
21138;SDS011;10727;43.600;1.444;2023-02-07T09:37:57;6.85;;;4.60;;
21138;SDS011;10727;43.600;1.444;2023-02-07T09:41:02;8.25;;;4.85;;
21138;SDS011;10727;43.600;1.444;2023-02-07T09:44:11;6.35;;;4.93;;
21138;SDS011;10727;43.600;1.444;2023-02-07T09:47:19;6.28;;;5.18;;
21138;SDS011;10727;43.600;1.444;2023-02-07T09:50:26;6.03;;;4.57;;
21138;SDS011;10727;43.600;1.444;2023-02-07T09:53:33;7.65;;;5.00;;
21138;SDS011;10727;43.600;1.444;2023-02-07T09:56:42;6.10;;;4.32;;
21138;SDS011;10727;43.600;1.444;2023-02-07T09:59:50;7.55;;;3.85;;
21138;SDS011;10727;43.600;1.444;2023-02-07T10:03:00;9.50;;;4.10;;
21138;SDS011;10727;43.600;1.444;2023-02-07T10:06:10;8.05;;;4.82;;
21138;SDS011;10727;43.600;1.444;2023-02-07T10:09:17;9.57;;;3.97;;
21138;SDS011;10727;43.600;1.444;2023-02-07T10:12:39;6.35;;;4.70;;
21138;SDS011;10727;43.600;1.444;2023-02-07T10:15:52;7.15;;;5.03;;
21138;SDS011;10727;43.600;1.444;2023-02-07T10:19:01;8.57;;;4.97;;
21138;SDS011;10727;43.600;1.444;2023-02-07T10:22:09;6.95;;;4.45;;
21138;SDS011;10727;43.600;1.444;2023-02-07T10:25:23;7.50;;;4.55;;
21138;SDS011;10727;43.600;1.444;2023-02-07T10:28:35;10.98;;;4.70;;
21138;SDS011;10727;43.600;1.444;2023-02-07T10:31:44;4.78;;;2.80;;
21138;SDS011;10727;43.600;1.444;2023-02-07T10:34:52;3.28;;;1.67;;
21138;SDS011;10727;43.600;1.444;2023-02-07T10:37:59;2.40;;;1.88;;
21138;SDS011;10727;43.600;1.444;2023-02-07T10:41:05;3.08;;;1.83;;
21138;SDS011;10727;43.600;1.444;2023-02-07T10:44:15;3.53;;;1.50;;
21138;SDS011;10727;43.600;1.444;2023-02-07T10:47:20;3.15;;;1.90;;
21138;SDS011;10727;43.600;1.444;2023-02-07T10:50:29;2.70;;;1.33;;
21138;SDS011;10727;43.600;1.444;2023-02-07T10:53:41;2.10;;;1.40;;
21138;SDS011;10727;43.600;1.444;2023-02-07T10:56:48;2.03;;;1.40;;
21138;SDS011;10727;43.600;1.444;2023-02-07T10:59:58;1.92;;;1.27;;
21138;SDS011;10727;43.600;1.444;2023-02-07T11:03:03;2.58;;;1.50;;
21138;SDS011;10727;43.600;1.444;2023-02-07T11:06:12;2.22;;;1.70;;
21138;SDS011;10727;43.600;1.444;2023-02-07T11:09:21;2.78;;;1.33;;
21138;SDS011;10727;43.600;1.444;2023-02-07T11:12:27;3.08;;;1.50;;
21138;SDS011;10727;43.600;1.444;2023-02-07T11:15:35;5.35;;;2.80;;
21138;SDS011;10727;43.600;1.444;2023-02-07T11:18:41;2.42;;;1.85;;
21138;SDS011;10727;43.600;1.444;2023-02-07T11:21:51;4.40;;;2.35;;
21138;SDS011;10727;43.600;1.444;2023-02-07T11:24:58;2.40;;;1.20;;
21138;SDS011;10727;43.600;1.444;2023-02-07T11:28:05;2.90;;;1.67;;
21138;SDS011;10727;43.600;1.444;2023-02-07T11:31:12;4.07;;;1.70;;
21138;SDS011;10727;43.600;1.444;2023-02-07T11:34:29;3.85;;;2.10;;
21138;SDS011;10727;43.600;1.444;2023-02-07T11:37:36;5.40;;;3.28;;
21138;SDS011;10727;43.600;1.444;2023-02-07T11:40:44;4.68;;;3.35;;
21138;SDS011;10727;43.600;1.444;2023-02-07T11:43:53;6.18;;;3.90;;
21138;SDS011;10727;43.600;1.444;2023-02-07T11:47:02;4.00;;;3.08;;
21138;SDS011;10727;43.600;1.444;2023-02-07T11:50:15;6.53;;;4.38;;
21138;SDS011;10727;43.600;1.444;2023-02-07T11:53:22;10.70;;;5.03;;
21138;SDS011;10727;43.600;1.444;2023-02-07T11:56:30;5.07;;;2.63;;
21138;SDS011;10727;43.600;1.444;2023-02-07T11:59:36;3.30;;;1.95;;
21138;SDS011;10727;43.600;1.444;2023-02-07T12:02:50;3.80;;;2.22;;
21138;SDS011;10727;43.600;1.444;2023-02-07T12:05:56;18.83;;;9.55;;
21138;SDS011;10727;43.600;1.444;2023-02-07T12:09:05;6.40;;;2.45;;
21138;SDS011;10727;43.600;1.444;2023-02-07T12:12:14;4.50;;;2.00;;
21138;SDS011;10727;43.600;1.444;2023-02-07T12:15:22;3.78;;;2.35;;
21138;SDS011;10727;43.600;1.444;2023-02-07T12:18:29;5.53;;;2.80;;
21138;SDS011;10727;43.600;1.444;2023-02-07T12:21:36;8.00;;;2.95;;
21138;SDS011;10727;43.600;1.444;2023-02-07T12:24:48;4.50;;;2.85;;
21138;SDS011;10727;43.600;1.444;2023-02-07T12:27:55;5.28;;;2.75;;
21138;SDS011;10727;43.600;1.444;2023-02-07T12:31:04;10.38;;;5.32;;
21138;SDS011;10727;43.600;1.444;2023-02-07T12:34:16;11.98;;;5.55;;
21138;SDS011;10727;43.600;1.444;2023-02-07T12:37:24;12.85;;;6.00;;
21138;SDS011;10727;43.600;1.444;2023-02-07T12:40:34;9.93;;;4.53;;
21138;SDS011;10727;43.600;1.444;2023-02-07T12:43:43;13.05;;;5.28;;
21138;SDS011;10727;43.600;1.444;2023-02-07T12:46:51;9.65;;;4.03;;
21138;SDS011;10727;43.600;1.444;2023-02-07T12:50:02;32.67;;;10.18;;
21138;SDS011;10727;43.600;1.444;2023-02-07T12:53:22;6.30;;;3.08;;
21138;SDS011;10727;43.600;1.444;2023-02-07T12:56:34;9.32;;;3.28;;
21138;SDS011;10727;43.600;1.444;2023-02-07T12:59:46;15.27;;;5.55;;
21138;SDS011;10727;43.600;1.444;2023-02-07T13:03:01;6.57;;;3.45;;
21138;SDS011;10727;43.600;1.444;2023-02-07T13:06:10;10.38;;;4.00;;
21138;SDS011;10727;43.600;1.444;2023-02-07T13:09:20;8.85;;;3.45;;
21138;SDS011;10727;43.600;1.444;2023-02-07T13:12:32;11.77;;;3.40;;
21138;SDS011;10727;43.600;1.444;2023-02-07T13:15:41;4.88;;;1.70;;
21138;SDS011;10727;43.600;1.444;2023-02-07T13:18:49;3.80;;;2.28;;
21138;SDS011;10727;43.600;1.444;2023-02-07T13:21:57;7.07;;;2.83;;
21138;SDS011;10727;43.600;1.444;2023-02-07T13:25:04;5.75;;;2.35;;
21138;SDS011;10727;43.600;1.444;2023-02-07T13:28:13;3.08;;;1.90;;
21138;SDS011;10727;43.600;1.444;2023-02-07T13:31:23;3.05;;;1.38;;
21138;SDS011;10727;43.600;1.444;2023-02-07T13:34:29;4.38;;;1.63;;
21138;SDS011;10727;43.600;1.444;2023-02-07T13:37:36;1.45;;;1.00;;
21138;SDS011;10727;43.600;1.444;2023-02-07T13:40:45;4.53;;;1.40;;
21138;SDS011;10727;43.600;1.444;2023-02-07T13:43:57;1.42;;;1.02;;
21138;SDS011;10727;43.600;1.444;2023-02-07T13:47:20;1.52;;;1.20;;
21138;SDS011;10727;43.600;1.444;2023-02-07T13:50:41;3.20;;;1.20;;
21138;SDS011;10727;43.600;1.444;2023-02-07T13:53:52;2.50;;;1.17;;
21138;SDS011;10727;43.600;1.444;2023-02-07T13:56:59;1.85;;;1.20;;
21138;SDS011;10727;43.600;1.444;2023-02-07T14:00:24;1.30;;;1.20;;
21138;SDS011;10727;43.600;1.444;2023-02-07T14:03:30;1.48;;;1.10;;
21138;SDS011;10727;43.600;1.444;2023-02-07T14:06:36;2.90;;;1.38;;
21138;SDS011;10727;43.600;1.444;2023-02-07T14:09:43;7.93;;;1.45;;
21138;SDS011;10727;43.600;1.444;2023-02-07T14:12:49;2.25;;;1.50;;
21138;SDS011;10727;43.600;1.444;2023-02-07T14:15:58;2.17;;;1.23;;
21138;SDS011;10727;43.600;1.444;2023-02-07T14:19:03;2.28;;;1.38;;
21138;SDS011;10727;43.600;1.444;2023-02-07T14:22:12;3.35;;;1.52;;
21138;SDS011;10727;43.600;1.444;2023-02-07T14:25:21;5.80;;;1.77;;
21138;SDS011;10727;43.600;1.444;2023-02-07T14:28:31;1.88;;;1.20;;
21138;SDS011;10727;43.600;1.444;2023-02-07T14:31:40;2.35;;;1.35;;
21138;SDS011;10727;43.600;1.444;2023-02-07T14:34:58;3.20;;;1.38;;
21138;SDS011;10727;43.600;1.444;2023-02-07T14:38:19;4.50;;;1.38;;
21138;SDS011;10727;43.600;1.444;2023-02-07T14:41:25;5.68;;;1.40;;
21138;SDS011;10727;43.600;1.444;2023-02-07T14:44:31;1.25;;;1.08;;
21138;SDS011;10727;43.600;1.444;2023-02-07T14:47:39;3.50;;;1.30;;
21138;SDS011;10727;43.600;1.444;2023-02-07T14:50:46;1.35;;;1.13;;
21138;SDS011;10727;43.600;1.444;2023-02-07T14:53:59;4.25;;;1.38;;
21138;SDS011;10727;43.600;1.444;2023-02-07T14:57:07;3.60;;;1.40;;
21138;SDS011;10727;43.600;1.444;2023-02-07T15:00:25;3.28;;;1.30;;
21138;SDS011;10727;43.600;1.444;2023-02-07T15:03:34;11.30;;;1.95;;
21138;SDS011;10727;43.600;1.444;2023-02-07T15:06:41;4.55;;;1.50;;
21138;SDS011;10727;43.600;1.444;2023-02-07T15:09:46;4.45;;;1.50;;
21138;SDS011;10727;43.600;1.444;2023-02-07T15:12:51;2.70;;;1.67;;
21138;SDS011;10727;43.600;1.444;2023-02-07T15:15:57;5.03;;;1.85;;
21138;SDS011;10727;43.600;1.444;2023-02-07T15:19:06;2.88;;;1.83;;
21138;SDS011;10727;43.600;1.444;2023-02-07T15:22:18;4.47;;;2.00;;
21138;SDS011;10727;43.600;1.444;2023-02-07T15:25:27;3.47;;;1.70;;
21138;SDS011;10727;43.600;1.444;2023-02-07T15:28:34;3.85;;;1.80;;
21138;SDS011;10727;43.600;1.444;2023-02-07T15:31:39;2.92;;;1.90;;
21138;SDS011;10727;43.600;1.444;2023-02-07T15:34:48;4.05;;;1.73;;
21138;SDS011;10727;43.600;1.444;2023-02-07T15:37:54;2.60;;;1.50;;
21138;SDS011;10727;43.600;1.444;2023-02-07T15:40:59;4.80;;;1.95;;
21138;SDS011;10727;43.600;1.444;2023-02-07T15:44:05;2.72;;;1.60;;
21138;SDS011;10727;43.600;1.444;2023-02-07T15:47:15;4.28;;;1.67;;
21138;SDS011;10727;43.600;1.444;2023-02-07T15:50:35;2.95;;;1.60;;
21138;SDS011;10727;43.600;1.444;2023-02-07T15:53:41;2.15;;;1.20;;
21138;SDS011;10727;43.600;1.444;2023-02-07T15:56:47;3.35;;;1.50;;
21138;SDS011;10727;43.600;1.444;2023-02-07T15:59:53;2.60;;;1.67;;
21138;SDS011;10727;43.600;1.444;2023-02-07T16:02:59;3.30;;;2.10;;
21138;SDS011;10727;43.600;1.444;2023-02-07T16:06:08;7.30;;;2.05;;
21138;SDS011;10727;43.600;1.444;2023-02-07T16:12:40;7.93;;;2.55;;
21138;SDS011;10727;43.600;1.444;2023-02-07T16:15:53;8.55;;;2.60;;
21138;SDS011;10727;43.600;1.444;2023-02-07T16:19:05;11.32;;;3.15;;
21138;SDS011;10727;43.600;1.444;2023-02-07T16:22:12;9.35;;;3.58;;
21138;SDS011;10727;43.600;1.444;2023-02-07T16:25:18;7.85;;;3.10;;
21138;SDS011;10727;43.600;1.444;2023-02-07T16:28:24;8.45;;;3.00;;
21138;SDS011;10727;43.600;1.444;2023-02-07T16:31:29;7.25;;;2.90;;
21138;SDS011;10727;43.600;1.444;2023-02-07T16:34:34;9.25;;;3.55;;
21138;SDS011;10727;43.600;1.444;2023-02-07T16:37:41;9.70;;;3.40;;
21138;SDS011;10727;43.600;1.444;2023-02-07T16:40:47;16.60;;;4.93;;
21138;SDS011;10727;43.600;1.444;2023-02-07T16:43:52;10.75;;;4.05;;
21138;SDS011;10727;43.600;1.444;2023-02-07T16:46:58;14.00;;;3.72;;
21138;SDS011;10727;43.600;1.444;2023-02-07T16:50:03;9.60;;;3.40;;
21138;SDS011;10727;43.600;1.444;2023-02-07T16:53:10;7.32;;;3.20;;
21138;SDS011;10727;43.600;1.444;2023-02-07T16:56:17;17.02;;;3.63;;
21138;SDS011;10727;43.600;1.444;2023-02-07T16:59:23;9.70;;;3.90;;
21138;SDS011;10727;43.600;1.444;2023-02-07T17:02:28;14.80;;;4.30;;
21138;SDS011;10727;43.600;1.444;2023-02-07T17:05:33;15.98;;;3.70;;
21138;SDS011;10727;43.600;1.444;2023-02-07T17:08:40;17.02;;;3.90;;
21138;SDS011;10727;43.600;1.444;2023-02-07T17:11:45;12.82;;;3.60;;
21138;SDS011;10727;43.600;1.444;2023-02-07T17:14:50;21.20;;;4.80;;
21138;SDS011;10727;43.600;1.444;2023-02-07T17:17:56;12.90;;;3.80;;
21138;SDS011;10727;43.600;1.444;2023-02-07T17:21:01;19.85;;;5.10;;
21138;SDS011;10727;43.600;1.444;2023-02-07T17:24:08;14.65;;;4.57;;
21138;SDS011;10727;43.600;1.444;2023-02-07T17:27:13;13.18;;;4.63;;
21138;SDS011;10727;43.600;1.444;2023-02-07T17:30:19;11.32;;;3.90;;
21138;SDS011;10727;43.600;1.444;2023-02-07T17:33:24;12.32;;;4.03;;
21138;SDS011;10727;43.600;1.444;2023-02-07T17:36:29;13.52;;;4.15;;
21138;SDS011;10727;43.600;1.444;2023-02-07T17:39:37;14.05;;;4.53;;
21138;SDS011;10727;43.600;1.444;2023-02-07T17:42:42;15.05;;;4.65;;
21138;SDS011;10727;43.600;1.444;2023-02-07T17:45:47;16.10;;;4.55;;
21138;SDS011;10727;43.600;1.444;2023-02-07T17:48:52;13.23;;;4.30;;
21138;SDS011;10727;43.600;1.444;2023-02-07T17:51:57;17.60;;;8.25;;
21138;SDS011;10727;43.600;1.444;2023-02-07T17:55:04;18.48;;;6.22;;
21138;SDS011;10727;43.600;1.444;2023-02-07T17:58:10;13.30;;;4.28;;
21138;SDS011;10727;43.600;1.444;2023-02-07T18:01:16;14.48;;;4.03;;
21138;SDS011;10727;43.600;1.444;2023-02-07T18:04:22;12.68;;;4.28;;
21138;SDS011;10727;43.600;1.444;2023-02-07T18:07:28;11.98;;;4.32;;
21138;SDS011;10727;43.600;1.444;2023-02-07T18:10:34;12.43;;;4.20;;
21138;SDS011;10727;43.600;1.444;2023-02-07T18:13:39;14.52;;;5.22;;
21138;SDS011;10727;43.600;1.444;2023-02-07T18:16:45;13.85;;;4.70;;
21138;SDS011;10727;43.600;1.444;2023-02-07T18:19:50;13.68;;;4.88;;
21138;SDS011;10727;43.600;1.444;2023-02-07T18:22:55;20.35;;;5.38;;
21138;SDS011;10727;43.600;1.444;2023-02-07T18:26:02;13.73;;;4.07;;
21138;SDS011;10727;43.600;1.444;2023-02-07T18:29:08;12.27;;;4.50;;
21138;SDS011;10727;43.600;1.444;2023-02-07T18:32:13;12.10;;;4.28;;
21138;SDS011;10727;43.600;1.444;2023-02-07T18:35:18;11.05;;;4.55;;
21138;SDS011;10727;43.600;1.444;2023-02-07T18:38:24;13.70;;;4.20;;
21138;SDS011;10727;43.600;1.444;2023-02-07T18:41:30;13.35;;;4.05;;
21138;SDS011;10727;43.600;1.444;2023-02-07T18:44:35;12.15;;;4.38;;